Time;durP1;ratioP1;P1;durP2;ratioP2;P2;SDS_P1;SDS_P2;PMS_P1;PMS_P2;Temp;Humidity;BMP_temperature;BMP_pressure;BME280_temperature;BME280_humidity;BME280_pressure;Samples;Min_cycle;Max_cycle;Signal;HPM_P1;HPM_P2
2023/09/18 00:00:21;;;;;;;2.35;1.70;;;;;;;23.25;61.43;99909.06;4514711;28;20096;-63
2023/09/18 00:02:31;;;;;;;2.05;1.60;;;;;;;23.25;61.56;99903.28;4514946;28;20600;-63
2023/09/18 00:04:42;;;;;;;2.65;1.63;;;;;;;23.22;61.63;99898.34;4515129;28;20038;-63
2023/09/18 00:06:52;;;;;;;1.88;1.75;;;;;;;23.21;61.50;99891.75;4514961;28;20034;-63
2023/09/18 00:09:03;;;;;;;1.90;1.70;;;;;;;23.18;61.54;99881.03;4514269;28;20046;-63
2023/09/18 00:11:13;;;;;;;2.05;1.60;;;;;;;23.13;61.52;99877.72;4515489;28;20034;-63
2023/09/18 00:13:23;;;;;;;2.25;1.75;;;;;;;23.22;61.74;99875.31;4498699;28;20026;-63
2023/09/18 00:15:34;;;;;;;1.85;1.70;;;;;;;23.23;61.24;99877.78;4514116;28;20061;-63
2023/09/18 00:17:44;;;;;;;2.10;1.80;;;;;;;23.24;61.36;99872.84;4514238;28;20061;-63
2023/09/18 00:19:55;;;;;;;2.03;1.70;;;;;;;23.24;61.30;99867.09;4515370;28;20026;-63
2023/09/18 00:22:06;;;;;;;2.33;1.70;;;;;;;23.22;61.46;99858.88;4515549;28;20034;-63
2023/09/18 00:24:17;;;;;;;1.75;1.65;;;;;;;23.23;61.38;99860.50;4503719;28;20875;-63
2023/09/18 00:26:27;;;;;;;2.17;1.70;;;;;;;23.24;61.20;99861.34;4513152;28;20042;-63
2023/09/18 00:28:38;;;;;;;1.88;1.73;;;;;;;23.22;61.29;99849.41;4515338;28;20891;-63
2023/09/18 00:30:50;;;;;;;2.45;2.00;;;;;;;23.24;61.22;99855.59;4515172;28;20049;-63
2023/09/18 00:33:00;;;;;;;2.78;2.00;;;;;;;23.23;61.16;99851.06;4506129;28;20048;-63
2023/09/18 00:35:11;;;;;;;2.45;1.75;;;;;;;23.24;61.27;99841.19;4505248;28;20049;-63
2023/09/18 00:37:21;;;;;;;2.10;1.73;;;;;;;23.23;61.15;99834.59;4513718;28;20108;-63
2023/09/18 00:39:32;;;;;;;2.75;1.70;;;;;;;23.22;61.28;99837.88;4513819;28;20084;-63
2023/09/18 00:41:43;;;;;;;1.73;1.60;;;;;;;23.21;60.74;99827.59;4500010;28;20590;-63
2023/09/18 00:43:54;;;;;;;2.03;1.83;;;;;;;23.23;61.01;99831.72;4514333;28;20056;-63
2023/09/18 00:46:04;;;;;;;2.88;1.80;;;;;;;23.22;61.11;99818.56;4513757;28;20108;-63
2023/09/18 00:48:16;;;;;;;1.65;1.55;;;;;;;23.19;60.99;99812.78;4515739;28;20034;-63
2023/09/18 00:50:26;;;;;;;1.70;1.60;;;;;;;23.21;61.07;99811.13;4506374;28;20696;-63
2023/09/18 00:52:38;;;;;;;2.65;1.83;;;;;;;23.21;61.20;99810.31;4495403;28;20120;-64
2023/09/18 00:54:49;;;;;;;2.70;1.75;;;;;;;23.23;61.10;99810.75;4498534;28;20589;-63
2023/09/18 00:57:00;;;;;;;1.90;1.70;;;;;;;23.23;61.08;99807.88;4512823;28;20045;-63
2023/09/18 00:59:11;;;;;;;1.80;1.50;;;;;;;23.15;61.10;99794.69;4505854;28;20037;-63
2023/09/18 01:01:23;;;;;;;2.40;1.70;;;;;;;23.23;61.06;99802.13;4513229;28;21217;-63
2023/09/18 01:03:33;;;;;;;2.88;1.90;;;;;;;23.19;61.22;99795.50;4497898;28;20919;-66
2023/09/18 01:05:45;;;;;;;2.03;1.83;;;;;;;23.22;61.02;99800.44;4514040;28;20048;-63
2023/09/18 01:07:55;;;;;;;1.63;1.52;;;;;;;23.21;60.94;99793.84;4514760;28;20041;-63
2023/09/18 01:10:08;;;;;;;2.63;1.98;;;;;;;23.21;60.81;99781.53;4513468;28;20076;-63
2023/09/18 01:12:19;;;;;;;1.85;1.65;;;;;;;23.23;60.87;99784.84;4506157;28;20034;-63
2023/09/18 01:14:39;;;;;;;1.92;1.70;;;;;;;23.23;60.71;99790.59;4512364;28;20097;-63
2023/09/18 01:17:04;;;;;;;2.22;1.70;;;;;;;23.17;60.95;99774.91;4514059;28;20041;-63
2023/09/18 01:19:14;;;;;;;3.20;1.77;;;;;;;23.19;60.73;99779.06;4507211;28;20944;-63
2023/09/18 01:21:24;;;;;;;2.00;1.80;;;;;;;23.21;60.42;99775.78;4501810;28;20108;-63
2023/09/18 01:23:35;;;;;;;2.20;1.95;;;;;;;23.18;60.62;99770.84;4514772;28;20037;-63
2023/09/18 01:25:46;;;;;;;2.28;1.83;;;;;;;23.22;60.67;99771.66;4502641;28;20646;-63
2023/09/18 01:27:57;;;;;;;3.55;1.70;;;;;;;23.20;60.55;99763.44;4505274;28;20088;-63
2023/09/18 01:30:08;;;;;;;2.03;1.70;;;;;;;23.21;60.73;99758.50;4513659;28;20036;-63
2023/09/18 01:32:19;;;;;;;1.90;1.63;;;;;;;23.22;60.58;99751.50;4513964;28;20121;-63
2023/09/18 01:34:36;;;;;;;2.33;1.63;;;;;;;23.06;60.42;99722.25;4505705;28;20860;-63
2023/09/18 01:36:47;;;;;;;2.05;1.73;;;;;;;23.20;60.55;99740.41;4514639;28;20699;-63
2023/09/18 01:38:58;;;;;;;2.03;1.83;;;;;;;23.18;60.58;99731.34;4480807;28;20023;-63
2023/09/18 01:41:09;;;;;;;1.60;1.50;;;;;;;23.21;60.89;99735.47;4505713;28;20050;-63
2023/09/18 01:43:20;;;;;;;2.63;1.83;;;;;;;23.15;60.55;99728.47;4498919;28;20037;-63
2023/09/18 01:45:31;;;;;;;2.13;1.88;;;;;;;23.19;60.38;99732.16;4503715;28;20341;-63
2023/09/18 01:47:43;;;;;;;2.35;1.90;;;;;;;23.14;60.35;99718.16;4514500;28;20033;-63
2023/09/18 01:49:53;;;;;;;2.38;1.63;;;;;;;23.20;60.51;99733.81;4514275;28;20431;-63
2023/09/18 01:52:05;;;;;;;2.42;1.70;;;;;;;23.16;60.15;99733.81;4498972;28;20475;-63
2023/09/18 01:54:15;;;;;;;2.17;1.75;;;;;;;23.21;60.33;99741.22;4513631;28;20069;-63
2023/09/18 01:56:25;;;;;;;1.70;1.60;;;;;;;23.19;60.51;99726.41;4513390;28;20444;-63
2023/09/18 01:58:36;;;;;;;2.08;1.80;;;;;;;23.15;60.22;99737.09;4502814;28;20036;-63
2023/09/18 02:00:46;;;;;;;2.25;1.40;;;;;;;23.18;60.22;99737.09;4502178;28;20141;-63
2023/09/18 02:02:57;;;;;;;2.28;1.50;;;;;;;23.17;60.10;99731.75;4504579;28;20469;-63
2023/09/18 02:05:07;;;;;;;2.03;1.70;;;;;;;23.21;60.31;99738.34;4513659;28;20062;-63
2023/09/18 02:07:18;;;;;;;2.00;1.70;;;;;;;23.17;60.34;99731.75;4515216;28;20533;-63
2023/09/18 02:09:28;;;;;;;1.52;1.40;;;;;;;23.16;60.37;99739.56;4513616;28;21164;-63
2023/09/18 02:11:43;;;;;;;2.03;1.65;;;;;;;23.20;60.35;99736.69;4513628;28;20038;-63
2023/09/18 02:13:54;;;;;;;1.80;1.70;;;;;;;23.06;60.14;99704.97;4512240;28;20038;-63
2023/09/18 02:16:04;;;;;;;2.75;1.95;;;;;;;23.14;60.30;99718.16;4514763;28;20034;-63
2023/09/18 02:18:15;;;;;;;2.20;1.70;;;;;;;23.16;60.27;99712.81;4514729;28;20033;-63
2023/09/18 02:20:26;;;;;;;2.00;1.80;;;;;;;23.17;60.19;99711.59;4513625;28;20566;-63
2023/09/18 02:22:38;;;;;;;2.63;1.63;;;;;;;23.12;60.26;99709.94;4514574;28;20540;-63
2023/09/18 02:24:48;;;;;;;2.28;1.52;;;;;;;23.15;60.40;99706.22;4513771;28;20049;-63
2023/09/18 02:26:59;;;;;;;2.08;1.63;;;;;;;23.18;59.92;99704.63;4513562;28;20044;-63
2023/09/18 02:29:14;;;;;;;1.92;1.50;;;;;;;23.14;60.11;99700.88;4503417;28;20038;-63
2023/09/18 02:31:24;;;;;;;2.20;1.50;;;;;;;23.18;60.03;99704.63;4499352;28;20046;-63
2023/09/18 02:33:35;;;;;;;2.30;1.50;;;;;;;23.19;60.12;99706.25;4512627;28;20041;-63
2023/09/18 02:35:45;;;;;;;1.60;1.50;;;;;;;23.18;60.08;99695.97;4514187;28;20467;-63
2023/09/18 02:37:56;;;;;;;1.60;1.38;;;;;;;23.18;60.19;99690.22;4512468;28;20499;-63
2023/09/18 02:40:07;;;;;;;1.60;1.50;;;;;;;23.16;60.16;99675.41;4496840;28;20055;-63
2023/09/18 02:42:18;;;;;;;2.10;1.70;;;;;;;23.13;59.82;99658.94;4512422;28;20044;-63
2023/09/18 02:44:28;;;;;;;1.77;1.52;;;;;;;23.17;59.88;99671.28;4504182;28;20037;-63
2023/09/18 02:46:42;;;;;;;1.63;1.50;;;;;;;23.15;60.19;99662.25;4515589;28;20125;-63
2023/09/18 02:48:52;;;;;;;3.13;1.73;;;;;;;23.17;60.51;99654.84;4508553;28;20085;-63
2023/09/18 02:51:03;;;;;;;1.88;1.40;;;;;;;23.16;60.27;99653.22;4502879;28;20086;-63
2023/09/18 02:53:20;;;;;;;3.33;1.67;;;;;;;23.16;60.35;99653.22;4500988;28;20029;-63
2023/09/18 02:55:30;;;;;;;2.13;1.40;;;;;;;23.10;60.44;99628.91;4508499;28;20631;-63
2023/09/18 02:57:41;;;;;;;2.00;1.58;;;;;;;23.06;60.18;99625.22;4509120;28;20101;-63
2023/09/18 02:59:51;;;;;;;2.53;1.50;;;;;;;23.11;60.42;99621.09;4508243;28;20108;-63
2023/09/18 03:02:02;;;;;;;1.80;1.50;;;;;;;23.14;60.39;99621.13;4503860;28;20479;-63
2023/09/18 03:04:13;;;;;;;1.80;1.52;;;;;;;23.05;60.28;99605.47;4515584;28;20038;-63
2023/09/18 03:06:23;;;;;;;2.00;1.80;;;;;;;23.18;60.50;99626.88;4491752;28;20546;-63
2023/09/18 03:08:34;;;;;;;2.28;1.70;;;;;;;23.13;60.41;99619.47;4517377;28;20566;-63
2023/09/18 03:10:45;;;;;;;2.00;1.60;;;;;;;23.17;60.20;99613.72;4507252;28;20069;-63
2023/09/18 03:12:56;;;;;;;1.95;1.60;;;;;;;23.16;60.20;99609.19;4488797;28;20121;-63
2023/09/18 03:15:07;;;;;;;1.70;1.50;;;;;;;23.15;60.35;99604.69;4515323;28;20048;-63
2023/09/18 03:17:18;;;;;;;2.53;1.70;;;;;;;23.16;60.31;99595.63;4508120;28;20030;-64
2023/09/18 03:19:28;;;;;;;1.75;1.63;;;;;;;23.16;60.12;99580.41;4516715;28;20437;-63
2023/09/18 03:21:39;;;;;;;1.67;1.58;;;;;;;23.14;60.29;99579.97;4503379;28;20041;-63
2023/09/18 03:23:50;;;;;;;2.33;1.77;;;;;;;23.12;60.42;99574.63;4500266;28;20030;-63
2023/09/18 03:26:00;;;;;;;2.25;1.70;;;;;;;23.14;60.47;99577.09;4507975;28;20077;-63
2023/09/18 03:28:11;;;;;;;1.80;1.58;;;;;;;23.16;60.45;99566.84;4516217;28;20021;-63
2023/09/18 03:30:28;;;;;;;2.03;1.83;;;;;;;23.16;60.36;99561.09;4514927;28;20030;-63
2023/09/18 03:32:39;;;;;;;2.20;1.50;;;;;;;23.14;60.56;99551.19;4508216;28;20103;-63
2023/09/18 03:34:53;;;;;;;1.70;1.60;;;;;;;23.11;60.46;99547.09;4500328;28;20041;-63
2023/09/18 03:37:04;;;;;;;1.63;1.50;;;;;;;23.14;60.43;99562.72;4515453;28;20121;-63
2023/09/18 03:39:15;;;;;;;2.25;1.65;;;;;;;23.15;60.59;99581.66;4484697;28;20467;-63
2023/09/18 03:41:25;;;;;;;1.60;1.50;;;;;;;23.14;60.61;99579.97;4507764;28;20061;-63
2023/09/18 03:43:36;;;;;;;2.13;1.80;;;;;;;23.15;61.01;99581.66;4499999;28;20039;-63
2023/09/18 03:45:47;;;;;;;1.90;1.67;;;;;;;23.14;60.86;99577.09;4500741;28;20030;-63
2023/09/18 03:47:57;;;;;;;1.73;1.60;;;;;;;23.16;60.72;99577.53;4500849;28;20044;-63
2023/09/18 03:50:11;;;;;;;2.25;1.80;;;;;;;23.17;60.73;99561.88;4502313;28;20205;-63
2023/09/18 03:52:21;;;;;;;1.60;1.50;;;;;;;23.13;60.64;99556.16;4515752;28;20034;-63
2023/09/18 03:54:32;;;;;;;2.15;1.75;;;;;;;23.13;60.66;99550.41;4515412;28;20030;-63
2023/09/18 03:56:42;;;;;;;2.22;1.60;;;;;;;23.15;60.64;99552.88;4515761;28;20121;-63
2023/09/18 03:58:53;;;;;;;2.03;1.60;;;;;;;23.16;60.59;99548.75;4486988;28;20052;-63
2023/09/18 04:01:03;;;;;;;2.15;1.65;;;;;;;23.15;60.60;99538.47;4498665;28;20042;-63
2023/09/18 04:03:14;;;;;;;1.73;1.60;;;;;;;23.14;60.63;99534.75;4501563;28;20089;-63
2023/09/18 04:05:25;;;;;;;2.17;1.50;;;;;;;23.14;60.49;99534.75;4515347;28;20491;-63
2023/09/18 04:07:35;;;;;;;1.60;1.40;;;;;;;23.15;60.78;99529.84;4516254;28;20040;-63
2023/09/18 04:09:46;;;;;;;2.35;1.60;;;;;;;23.14;60.77;99529.00;4514542;28;20037;-63
2023/09/18 04:11:56;;;;;;;1.67;1.58;;;;;;;23.09;60.71;99509.25;4498627;28;20109;-63
2023/09/18 04:14:07;;;;;;;1.63;1.50;;;;;;;23.01;60.79;99492.38;4516023;28;20041;-63
2023/09/18 04:16:17;;;;;;;2.47;1.52;;;;;;;23.10;60.40;99499.38;4515220;28;20537;-63
2023/09/18 04:18:28;;;;;;;2.20;1.58;;;;;;;23.13;60.60;99498.59;4500238;28;20035;-63
2023/09/18 04:20:38;;;;;;;1.85;1.55;;;;;;;23.12;60.76;99493.22;4514169;28;20606;-63
2023/09/18 04:23:17;;;;;;;2.63;1.70;;;;;;;23.14;60.70;99479.22;4499203;28;20073;-63
2023/09/18 04:25:28;;;;;;;1.80;1.30;;;;;;;23.11;60.38;99478.00;4514147;28;20049;-63
2023/09/18 04:27:38;;;;;;;1.65;1.55;;;;;;;23.12;60.42;99484.59;4504827;28;20053;-63
2023/09/18 04:29:49;;;;;;;1.63;1.40;;;;;;;23.13;60.27;99480.47;4500955;28;20406;-63
2023/09/18 04:31:59;;;;;;;1.50;1.40;;;;;;;23.10;60.45;99481.31;4504119;28;20037;-63
2023/09/18 04:34:11;;;;;;;1.60;1.50;;;;;;;23.13;60.64;99489.13;4497844;28;20635;-63
2023/09/18 04:36:23;;;;;;;1.70;1.50;;;;;;;23.11;60.74;99471.41;4506937;28;20038;-63
2023/09/18 04:38:33;;;;;;;1.50;1.40;;;;;;;23.11;60.40;99457.88;4501050;28;20042;-63
2023/09/18 04:40:45;;;;;;;1.65;1.42;;;;;;;23.09;60.20;99450.84;4497531;28;20038;-63
2023/09/18 04:42:57;;;;;;;1.60;1.40;;;;;;;23.14;60.37;99465.66;4506166;28;20648;-63
2023/09/18 04:45:08;;;;;;;1.58;1.48;;;;;;;23.07;60.44;99442.63;4496777;28;20035;-62
2023/09/18 04:47:19;;;;;;;1.40;1.30;;;;;;;22.93;60.38;99425.38;4507238;28;20045;-63
2023/09/18 04:49:29;;;;;;;2.30;1.60;;;;;;;23.14;60.39;99461.97;4500173;28;20042;-63
2023/09/18 04:51:41;;;;;;;1.60;1.50;;;;;;;23.13;60.66;99457.44;4498442;28;20108;-63
2023/09/18 04:53:52;;;;;;;1.70;1.60;;;;;;;23.13;60.65;99466.09;4506298;28;20069;-63
2023/09/18 04:56:03;;;;;;;2.30;1.70;;;;;;;23.11;60.67;99466.50;4506474;28;20049;-63
2023/09/18 04:58:13;;;;;;;1.92;1.70;;;;;;;23.11;60.38;99465.66;4500345;28;20034;-63
2023/09/18 05:00:26;;;;;;;1.70;1.60;;;;;;;23.09;60.44;99468.13;4515138;28;20026;-63
2023/09/18 05:02:36;;;;;;;2.53;1.77;;;;;;;23.12;60.40;99468.13;4512850;28;20130;-63
2023/09/18 05:04:47;;;;;;;1.83;1.73;;;;;;;23.11;60.42;99468.53;4508090;28;20034;-63
2023/09/18 05:06:57;;;;;;;2.13;1.63;;;;;;;23.10;60.35;99464.84;4506135;28;20092;-63
2023/09/18 05:09:08;;;;;;;2.42;1.65;;;;;;;23.08;60.52;99454.97;4513989;28;20033;-63
2023/09/18 05:11:18;;;;;;;1.45;1.33;;;;;;;23.13;60.46;99463.22;4515139;28;20049;-63
2023/09/18 05:13:29;;;;;;;1.83;1.60;;;;;;;23.11;60.42;99465.66;4515158;28;20168;-63
2023/09/18 05:15:39;;;;;;;2.35;1.88;;;;;;;23.12;60.11;99456.63;4512827;28;20037;-63
2023/09/18 05:17:52;;;;;;;1.75;1.60;;;;;;;23.10;60.34;99452.53;4514884;28;20033;-63
2023/09/18 05:20:07;;;;;;;1.60;1.50;;;;;;;23.10;60.36;99459.06;4500537;28;20030;-63
2023/09/18 05:22:18;;;;;;;1.90;1.50;;;;;;;23.10;60.11;99459.06;4513643;28;20041;-63
2023/09/18 05:24:29;;;;;;;1.50;1.40;;;;;;;23.10;60.46;99455.41;4498556;28;20090;-63
2023/09/18 05:26:39;;;;;;;1.65;1.50;;;;;;;23.12;60.78;99465.25;4513125;28;20581;-63
2023/09/18 05:28:50;;;;;;;2.22;1.60;;;;;;;23.12;60.79;99435.66;4514436;28;20072;-63
2023/09/18 05:31:01;;;;;;;1.70;1.55;;;;;;;23.11;60.87;99436.88;4514811;28;20033;-63
2023/09/18 05:33:13;;;;;;;1.75;1.65;;;;;;;23.10;60.88;99443.88;4514003;28;20463;-63
2023/09/18 05:35:23;;;;;;;1.85;1.55;;;;;;;23.11;60.71;99442.63;4498979;28;20038;-63
2023/09/18 05:37:34;;;;;;;1.60;1.40;;;;;;;23.06;60.94;99429.50;4514573;28;20039;-63
2023/09/18 05:39:44;;;;;;;1.95;1.77;;;;;;;23.10;60.81;99429.50;4514656;28;20072;-63
2023/09/18 05:41:55;;;;;;;2.03;1.60;;;;;;;23.06;60.82;99420.03;4512690;28;20073;-63
2023/09/18 05:44:07;;;;;;;1.95;1.77;;;;;;;23.05;60.72;99413.47;4499521;28;20030;-63
2023/09/18 05:46:17;;;;;;;1.90;1.50;;;;;;;23.12;60.42;99435.66;4513683;28;20115;-63
2023/09/18 05:48:28;;;;;;;1.70;1.60;;;;;;;23.12;60.49;99444.31;4506600;28;20048;-63
2023/09/18 05:50:40;;;;;;;1.58;1.48;;;;;;;23.11;60.52;99446.34;4514580;28;20049;-63
2023/09/18 05:52:51;;;;;;;1.63;1.52;;;;;;;23.07;61.13;99436.06;4513616;28;20052;-63
2023/09/18 05:55:03;;;;;;;1.75;1.40;;;;;;;23.13;61.28;99434.41;4499422;28;20181;-63
2023/09/18 05:57:13;;;;;;;1.58;1.40;;;;;;;23.12;61.40;99438.53;4515344;28;20569;-63
2023/09/18 05:59:24;;;;;;;2.35;1.42;;;;;;;23.13;61.75;99446.78;4499796;28;20038;-63
2023/09/18 06:01:34;;;;;;;1.95;1.60;;;;;;;23.12;61.69;99464.44;4514355;28;20038;-63
2023/09/18 06:03:45;;;;;;;1.75;1.40;;;;;;;23.12;61.33;99458.69;4505189;28;20109;-63
2023/09/18 06:05:55;;;;;;;2.05;1.58;;;;;;;23.09;60.14;99453.72;4514281;28;20052;-63
2023/09/18 06:08:06;;;;;;;2.30;1.65;;;;;;;23.11;61.78;99454.16;4495993;28;20037;-63
2023/09/18 06:10:17;;;;;;;1.88;1.50;;;;;;;23.13;61.63;99452.53;4513388;28;20120;-63
2023/09/18 06:12:27;;;;;;;1.77;1.52;;;;;;;23.10;61.50;99452.53;4512594;28;20026;-63
2023/09/18 06:14:38;;;;;;;1.70;1.40;;;;;;;23.13;61.35;99445.94;4495823;28;20082;-63
2023/09/18 06:16:48;;;;;;;1.80;1.48;;;;;;;23.14;61.54;99459.09;4515193;28;20413;-62
2023/09/18 06:19:00;;;;;;;2.25;1.67;;;;;;;23.11;61.44;99451.28;4507071;28;20601;-62
2023/09/18 06:21:10;;;;;;;1.80;1.55;;;;;;;23.11;61.38;99459.91;4516237;28;20056;-62
2023/09/18 06:23:20;;;;;;;1.80;1.55;;;;;;;23.12;61.19;99473.09;4515530;28;20049;-63
2023/09/18 06:25:31;;;;;;;1.55;1.45;;;;;;;23.12;61.51;99487.47;4516006;28;20036;-62
2023/09/18 06:27:42;;;;;;;1.58;1.48;;;;;;;23.15;61.34;99498.16;4499658;28;20042;-62
2023/09/18 06:29:52;;;;;;;2.50;1.70;;;;;;;23.09;61.27;99485.41;4517299;28;20037;-62
2023/09/18 06:32:03;;;;;;;2.22;1.70;;;;;;;23.14;61.38;99505.97;4501922;28;20037;-62
2023/09/18 06:34:13;;;;;;;2.35;1.55;;;;;;;23.13;61.04;99486.22;4517602;28;20741;-62
2023/09/18 06:36:24;;;;;;;1.90;1.17;;;;;;;23.11;59.84;99488.69;4520357;28;20061;-62
2023/09/18 06:38:34;;;;;;;2.17;1.10;;;;;;;23.12;59.62;99491.16;4503593;28;20025;-63
2023/09/18 06:40:44;;;;;;;1.75;1.20;;;;;;;23.11;59.55;99480.06;4505593;28;20046;-63
2023/09/18 06:43:00;;;;;;;2.38;1.40;;;;;;;23.12;59.50;99481.72;4516180;28;20066;-63
2023/09/18 06:45:11;;;;;;;2.33;1.13;;;;;;;23.14;59.17;99494.47;4516186;28;20085;-63
2023/09/18 06:47:24;;;;;;;1.38;0.98;;;;;;;23.12;58.97;99496.13;4515842;28;20060;-63
2023/09/18 06:49:34;;;;;;;1.20;1.00;;;;;;;23.08;58.95;99484.59;4516512;28;20041;-63
2023/09/18 06:51:44;;;;;;;1.60;1.17;;;;;;;23.11;58.91;99486.66;4516638;28;20080;-63
2023/09/18 06:53:57;;;;;;;1.52;1.20;;;;;;;23.13;58.78;99492.00;4515131;28;20112;-63
2023/09/18 06:56:09;;;;;;;1.02;0.90;;;;;;;23.12;59.10;99508.44;4516466;28;20115;-63
2023/09/18 06:58:20;;;;;;;1.77;1.00;;;;;;;23.13;59.21;99523.66;4515808;28;20030;-63
2023/09/18 07:00:30;;;;;;;1.10;0.95;;;;;;;23.11;58.96;99520.34;4515089;28;20048;-63
2023/09/18 07:02:40;;;;;;;2.78;1.02;;;;;;;23.13;58.67;99526.53;4508294;28;20069;-63
2023/09/18 07:04:51;;;;;;;1.48;1.10;;;;;;;23.12;59.23;99514.19;4515612;28;20394;-63
2023/09/18 07:07:01;;;;;;;2.35;1.30;;;;;;;23.11;59.61;99512.56;4484101;28;20098;-63
2023/09/18 07:09:12;;;;;;;1.63;1.05;;;;;;;23.07;59.39;99505.97;4501336;28;20042;-63
2023/09/18 07:11:22;;;;;;;1.42;1.10;;;;;;;23.11;59.22;99517.47;4497911;28;20375;-63
2023/09/18 07:13:33;;;;;;;1.45;1.20;;;;;;;23.11;59.31;99523.22;4514634;28;20042;-63
2023/09/18 07:15:44;;;;;;;2.85;1.08;;;;;;;23.13;59.34;99538.03;4515826;28;20044;-63
2023/09/18 07:17:54;;;;;;;5.05;1.33;;;;;;;23.12;59.70;99536.41;4514054;28;20108;-62
2023/09/18 07:20:13;;;;;;;1.20;1.00;;;;;;;23.12;59.77;99542.97;4514355;28;20094;-63
2023/09/18 07:22:24;;;;;;;1.73;0.93;;;;;;;23.12;60.12;99536.41;4513531;28;20107;-62
2023/09/18 07:24:34;;;;;;;1.80;1.20;;;;;;;23.07;59.98;99516.66;4514258;28;20422;-63
2023/09/18 07:27:03;;;;;;;2.45;1.23;;;;;;;23.14;60.28;99523.25;4514166;28;20072;-64
2023/09/18 07:29:15;;;;;;;1.65;1.00;;;;;;;23.14;60.28;99534.75;4515784;28;20030;-63
2023/09/18 07:31:25;;;;;;;1.13;0.90;;;;;;;23.15;60.52;99535.59;4515235;28;20858;-64
2023/09/18 07:33:35;;;;;;;1.38;1.00;;;;;;;23.13;60.13;99549.56;4515633;28;20037;-64
2023/09/18 07:35:47;;;;;;;0.90;0.80;;;;;;;23.13;59.96;99552.44;4515230;28;20510;-64
2023/09/18 07:37:58;;;;;;;2.35;0.93;;;;;;;23.16;59.68;99540.09;4515382;28;20078;-64
2023/09/18 07:40:09;;;;;;;2.10;1.00;;;;;;;23.17;59.57;99542.56;4514963;28;20112;-64
2023/09/18 07:42:19;;;;;;;2.45;1.00;;;;;;;23.18;59.07;99534.75;4514650;28;20057;-64
2023/09/18 07:44:29;;;;;;;1.15;0.80;;;;;;;23.16;59.11;99526.53;4513695;28;20038;-64
2023/09/18 07:46:41;;;;;;;1.73;0.88;;;;;;;23.17;59.53;99525.31;4514223;28;20391;-64
2023/09/18 07:48:51;;;;;;;1.00;0.73;;;;;;;23.18;59.29;99534.75;4515432;28;20025;-64
2023/09/18 07:51:02;;;;;;;1.48;0.80;;;;;;;23.14;59.19;99533.94;4515497;28;20041;-63
2023/09/18 07:53:12;;;;;;;1.50;0.80;;;;;;;23.21;59.10;99554.09;4514701;28;20155;-65
2023/09/18 07:55:23;;;;;;;0.95;0.80;;;;;;;23.18;59.17;99546.28;4514960;28;20093;-64
2023/09/18 07:57:34;;;;;;;0.95;0.80;;;;;;;23.15;59.36;99547.09;4514975;28;20483;-63
2023/09/18 07:59:46;;;;;;;1.75;0.90;;;;;;;23.18;59.36;99552.03;4514855;28;20653;-64
2023/09/18 08:01:57;;;;;;;1.67;0.80;;;;;;;23.15;58.32;99541.34;4514697;28;20041;-64
2023/09/18 08:04:08;;;;;;;2.45;0.90;;;;;;;23.16;58.69;99554.50;4506150;28;20100;-64
2023/09/18 08:06:19;;;;;;;1.40;0.60;;;;;;;23.17;58.58;99567.66;4506235;28;20125;-64
2023/09/18 08:08:31;;;;;;;1.38;0.80;;;;;;;23.17;58.90;99570.53;4498415;28;20570;-64
2023/09/18 08:10:42;;;;;;;1.08;0.70;;;;;;;23.08;59.11;99559.44;4515110;28;20717;-64
2023/09/18 08:12:53;;;;;;;1.42;0.70;;;;;;;23.17;59.33;99573.41;4514509;28;20187;-64
2023/09/18 08:15:05;;;;;;;1.15;0.88;;;;;;;23.18;59.26;99575.06;4514924;28;20597;-64
2023/09/18 08:17:16;;;;;;;1.75;0.90;;;;;;;23.17;59.49;99565.59;4514111;28;20497;-64
2023/09/18 08:19:27;;;;;;;1.10;0.60;;;;;;;23.17;59.03;99585.75;4514226;28;20038;-64
2023/09/18 08:21:37;;;;;;;1.63;0.77;;;;;;;23.11;59.27;99569.28;4515140;28;20030;-64
2023/09/18 08:23:48;;;;;;;2.03;0.80;;;;;;;23.14;59.25;99568.47;4513043;28;20971;-64
2023/09/18 08:25:58;;;;;;;1.00;0.70;;;;;;;23.15;59.16;99567.25;4513604;28;20128;-64
2023/09/18 08:28:08;;;;;;;1.40;0.70;;;;;;;23.16;59.56;99566.84;4484483;28;20027;-64
2023/09/18 08:30:20;;;;;;;1.60;0.65;;;;;;;23.17;59.32;99556.13;4513367;28;20486;-64
2023/09/18 08:32:33;;;;;;;1.08;0.70;;;;;;;23.16;59.00;99584.13;4512936;28;20044;-64
2023/09/18 08:34:44;;;;;;;1.13;0.80;;;;;;;23.14;59.17;99591.50;4513452;28;20076;-64
2023/09/18 08:36:54;;;;;;;1.27;0.73;;;;;;;23.17;58.87;99588.63;4513869;28;20557;-64
2023/09/18 08:39:07;;;;;;;1.80;0.70;;;;;;;23.15;59.00;99584.53;4514137;28;20092;-64
2023/09/18 08:41:19;;;;;;;1.05;0.68;;;;;;;23.18;58.92;99592.34;4498655;28;20088;-63
2023/09/18 08:43:31;;;;;;;0.80;0.60;;;;;;;23.17;59.51;99587.78;4513485;28;20017;-64
2023/09/18 08:45:53;;;;;;;0.93;0.88;;;;;;;23.16;59.49;99589.03;4512361;28;20142;-64
2023/09/18 08:48:06;;;;;;;1.65;0.82;;;;;;;23.04;59.32;99575.06;4513766;28;20105;-64
2023/09/18 08:50:18;;;;;;;1.38;0.60;;;;;;;23.13;58.86;99584.09;4514227;28;20085;-64
2023/09/18 08:52:28;;;;;;;0.75;0.70;;;;;;;23.16;59.12;99586.16;4513460;28;20033;-64
2023/09/18 08:54:39;;;;;;;1.38;0.60;;;;;;;23.17;59.01;99600.16;4512002;28;20029;-64
2023/09/18 08:56:54;;;;;;;0.85;0.55;;;;;;;23.17;59.39;99591.50;4512246;28;20033;-64
2023/09/18 08:59:04;;;;;;;1.25;0.60;;;;;;;23.11;58.99;99569.28;4514153;28;20633;-69
2023/09/18 09:01:15;;;;;;;1.52;0.70;;;;;;;23.12;59.40;99576.72;4513924;28;20159;-64
2023/09/18 09:03:27;;;;;;;2.33;1.20;;;;;;;23.16;59.25;99580.41;4513399;28;20061;-64
2023/09/18 09:05:37;;;;;;;2.25;0.60;;;;;;;23.18;59.12;99583.72;4497234;28;20042;-64
2023/09/18 09:07:50;;;;;;;1.13;0.60;;;;;;;23.17;59.05;99582.88;4513429;28;20041;-64
2023/09/18 09:10:00;;;;;;;1.38;0.70;;;;;;;23.10;59.09;99567.66;4513736;28;20104;-64
2023/09/18 09:12:11;;;;;;;2.17;0.90;;;;;;;23.17;58.59;99590.69;4516106;28;20088;-64
2023/09/18 09:14:27;;;;;;;2.20;0.80;;;;;;;23.08;59.24;99581.63;4514262;28;20040;-64
2023/09/18 09:16:46;;;;;;;0.50;0.50;;;;;;;23.19;59.08;99596.84;4513915;28;20073;-64
2023/09/18 09:18:56;;;;;;;0.50;0.50;;;;;;;23.16;58.93;99589.88;4514425;28;20805;-64
2023/09/18 09:21:07;;;;;;;1.23;0.70;;;;;;;23.18;59.00;99595.22;4511971;28;20048;-65
2023/09/18 09:23:18;;;;;;;1.95;0.70;;;;;;;23.17;58.47;99588.63;4511505;28;20036;-64
2023/09/18 09:25:34;;;;;;;0.93;0.70;;;;;;;23.19;58.73;99594.81;4512594;28;20048;-64
2023/09/18 09:27:45;;;;;;;1.30;0.60;;;;;;;23.17;58.91;99585.75;4511700;28;20042;-63
2023/09/18 09:30:01;;;;;;;2.08;0.70;;;;;;;23.15;59.11;99581.66;4497087;28;20030;-64
2023/09/18 09:32:19;;;;;;;;;;;;;;;23.19;59.00;99588.22;4495361;28;20141;-63
2023/09/18 09:34:31;;;;;;;0.52;0.52;;;;;;;23.18;59.30;99592.34;4504596;28;19921;-63
2023/09/18 09:36:53;;;;;;;0.98;0.60;;;;;;;23.20;59.21;99595.63;4511347;28;20041;-63
2023/09/18 09:39:05;;;;;;;1.52;0.63;;;;;;;23.13;59.17;99589.84;4512821;28;20034;-66
2023/09/18 09:41:17;;;;;;;1.00;0.52;;;;;;;23.18;59.10;99600.97;4513937;28;20639;-63
2023/09/18 09:43:31;;;;;;;0.93;0.50;;;;;;;23.17;59.35;99596.44;4513565;28;20117;-64
2023/09/18 09:45:42;;;;;;;1.50;0.60;;;;;;;23.20;59.63;99596.44;4513691;28;20045;-64
2023/09/18 09:47:54;;;;;;;0.95;0.60;;;;;;;23.18;59.06;99587.38;4497126;28;20030;-64
2023/09/18 09:50:10;;;;;;;0.82;0.40;;;;;;;23.13;59.05;99586.97;4512924;28;20026;-64
2023/09/18 09:52:21;;;;;;;0.77;0.60;;;;;;;23.12;59.55;99591.09;4512849;28;20133;-64
2023/09/18 09:54:40;;;;;;;1.23;0.60;;;;;;;23.20;59.73;99613.72;4511652;28;20596;-64
2023/09/18 09:56:51;;;;;;;1.08;0.70;;;;;;;23.30;59.23;99627.34;4512416;28;20615;-64
2023/09/18 09:59:04;;;;;;;1.25;0.90;;;;;;;23.25;59.25;99621.13;4510302;28;20042;-64
2023/09/18 10:01:17;;;;;;;0.80;0.60;;;;;;;23.19;58.83;99611.25;4511761;28;20935;-64
2023/09/18 10:03:29;;;;;;;1.70;0.60;;;;;;;23.14;58.81;99597.25;4511688;28;20030;-64
2023/09/18 10:05:42;;;;;;;1.25;0.60;;;;;;;23.22;59.50;99616.19;4512220;28;20056;-65
2023/09/18 10:07:53;;;;;;;1.25;0.60;;;;;;;23.18;59.08;99610.41;4512578;28;21619;-64
2023/09/18 10:10:04;;;;;;;1.15;0.70;;;;;;;23.19;58.88;99614.13;4512677;28;20037;-64
2023/09/18 10:12:20;;;;;;;1.25;0.60;;;;;;;23.20;59.44;99630.16;4512428;28;20026;-64
2023/09/18 10:14:36;;;;;;;0.80;0.60;;;;;;;23.22;59.71;99624.81;4512031;28;20045;-64
2023/09/18 10:16:54;;;;;;;1.20;0.57;;;;;;;23.22;59.76;99619.06;4512700;28;21164;-64
2023/09/18 10:19:26;;;;;;;0.63;0.55;;;;;;;23.22;60.47;99610.44;4511138;28;20026;-64